• Join FlightAware (Why Join?)
  • Login
  • US Flag GB Flag 
10:45 EDT


 

Airport Tracker/Info


-or-


 

Live Flight TrackerFlight Track Log ✈ EJA982 ✈ 30-Apr-2013 ✈ KSJC - KBOI

Flight Track Log - Related Links

Times and Time Zones

All times are in EDT time to prevent confusion due to time zone crossing. See the EJA982 flight status page for this flight to view local times or setup timezone preferences in your user account.

Time Position Orientation Groundspeed Altitude Reporting Facility
EDT Latitude Longitude Course Direction KTS MPH feet Rate Location/Type
13:21 37.4000 -121.9667 22° Northeast 188 216 3,400  Level Northern Cal TRACON
13:22 37.4333 -121.9500 22° Northeast 233 268 5,100 960 Climbing Northern Cal TRACON
13:23 37.3833 -121.8833 133° Southeast 244 281 5,400 1,320 Climbing Northern Cal TRACON
13:24 37.3656 -121.8500 124° Southeast 243 280 7,300 2,520 Climbing Oakland Center
13:25 37.3042 -121.8028 149° Southeast 270 311 9,600 2,520 Climbing Oakland Center
13:26 37.2553 -121.8692 227° Southwest 300 345 12,500 2,280 Climbing Oakland Center
13:27 37.3261 -121.9186 331° Northwest 317 365 14,300 1,860 Climbing Oakland Center
13:28 37.4450 -121.9283 356° North 349 402 16,400 1,920 Climbing Oakland Center
13:29 37.5469 -121.9417 354° North 365 420 18,300 1,860 Climbing Oakland Center
13:30 37.6525 -121.9628 351° North 380 437 20,300 1,680 Climbing Oakland Center
13:31 37.7583 -121.9794 353° North 385 443 21,800 1,380 Climbing Oakland Center
13:32 37.8703 -121.9989 352° North 404 465 23,200 1,500 Climbing Oakland Center
13:33 37.9833 -122.0167 353° North 412 474 24,900 1,560 Climbing Oakland Center
13:34 38.0925 -121.9583 23° Northeast 436 502 26,400 1,560 Climbing Oakland Center
13:35 38.2161 -121.8539 34° Northeast 448 516 28,200 1,560 Climbing Oakland Center
13:36 38.3211 -121.7653 33° Northeast 452 520 29,600 1,380 Climbing Oakland Center
13:37 38.4294 -121.6733 34° Northeast 468 539 31,100 1,500 Climbing Oakland Center
13:38 38.5267 -121.5917 33° Northeast 469 540 32,700 1,800 Climbing Oakland Center
13:39 38.6456 -121.4903 34° Northeast 465 535 34,900 1,080 Climbing Oakland Center
13:40 38.7519 -121.4000 33° Northeast 487 560 35,000  Climbing Oakland Center
13:41 38.8978 -121.2736 34° Northeast 514 592 35,000  Level Oakland Center
13:42 39.0189 -121.1700 34° Northeast 519 597 35,000  Level Oakland Center
13:43 39.1397 -121.0636 34° Northeast 523 602 35,000  Level Oakland Center
13:44 39.2603 -120.9597 34° Northeast 519 597 35,000  Level Oakland Center
13:45 39.3786 -120.8553 34° Northeast 516 594 35,000  Level Oakland Center
13:46 39.4897 -120.7589 34° Northeast 486 559 35,000  Level Oakland Center
13:47 39.6017 -120.6597 34° Northeast 483 556 35,100  Climbing Oakland Center
13:48 39.7136 -120.5603 34° Northeast 485 558 35,000 -60 Descending Oakland Center
13:49 39.8225 -120.4628 35° Northeast 477 549 35,000  Level Oakland Center
13:50 39.9319 -120.3667 34° Northeast 474 545 35,000  Level Oakland Center
13:51 40.0439 -120.2639 35° Northeast 477 549 35,000  Level Oakland Center
13:52 40.1556 -120.1642 34° Northeast 483 556 35,000  Level Oakland Center
13:53 40.2911 -120.0411 35° Northeast 491 565 35,000  Level Oakland Center
13:54 40.4072 -119.9372 34° Northeast 501 577 35,000  Level Oakland Center
13:55 40.5192 -119.8344 35° Northeast 491 565 35,000  Level Oakland Center
13:56 40.6336 -119.7344 34° Northeast 492 566 35,000  Level Oakland Center
13:58 40.7503 -119.6261 35° Northeast 507 583 35,000  Level Oakland Center
13:59 40.8681 -119.5139 36° Northeast 495 570 35,000  Level Oakland Center
14:00 40.9767 -119.4136 35° Northeast 494 568 35,000  Level Oakland Center
14:01 41.0867 -119.3114 35° Northeast 499 574 35,000  Level Oakland Center
14:02 41.2125 -119.1942 35° Northeast 498 573 35,000  Level Oakland Center
14:03 41.3236 -119.0900 35° Northeast 504 580 35,000  Level Oakland Center
14:04 41.4544 -118.9678 35° Northeast 506 582 35,000  Level Salt Lake Center
14:05 41.5639 -118.8639 35° Northeast 510 587 35,000  Level Oakland Center
14:06 41.6775 -118.7556 35° Northeast 517 595 35,000  Level Oakland Center
14:07 41.8097 -118.6292 35° Northeast 515 593 35,000  Level Salt Lake Center
14:08 41.9200 -118.5228 36° Northeast 511 588 35,000  Level Salt Lake Center
14:09 42.0481 -118.3986 36° Northeast 507 583 35,000  Level Salt Lake Center
14:10 42.1564 -118.2919 36° Northeast 503 579 35,000 -300 Level Salt Lake Center
14:11 42.2853 -118.1683 35° Northeast 508 585 34,500 -1,320 Descending Salt Lake Center
14:12 42.3936 -118.0586 37° Northeast 517 595 32,300 -2,280 Descending Salt Lake Center
14:13 42.5194 -117.9344 36° Northeast 499 574 29,900 -2,340 Descending Salt Lake Center
14:14 42.6319 -117.8536 28° Northeast 472 543 27,500 -2,280 Descending Salt Lake Center
14:15 42.7597 -117.7667 27° Northeast 458 527 25,300 -2,100 Descending Salt Lake Center
14:16 42.8650 -117.6956 26° Northeast 441 507 23,300 -2,100 Descending Salt Lake Center
14:17 42.9625 -117.5606 45° Northeast 463 533 21,100 -2,040 Descending Salt Lake Center
14:18 43.0272 -117.4164 58° Northeast 464 534 19,200 -1,860 Descending Salt Lake Center
14:19 43.0886 -117.2756 59° Northeast 451 519 17,300 -1,860 Descending Salt Lake Center
14:20 43.1564 -117.1178 59° Northeast 430 495 15,500 -1,800 Descending Salt Lake Center
14:21 43.2122 -116.9894 59° Northeast 411 473 13,700 -1,260 Descending Salt Lake Center
14:22 43.2725 -116.8481 60° Northeast 384 442 13,000 -780 Descending Salt Lake Center
14:23 43.3203 -116.7364 60° Northeast 343 395 12,200 -1,380 Descending Salt Lake Center
14:24 43.3669 -116.6292 59° Northeast 307 353 10,200 -1,860 Descending Salt Lake Center
14:25 43.4053 -116.5394 60° Northeast 287 330 8,400 -1,080 Descending Salt Lake Center
14:26 43.4431 -116.4519 59° Northeast 280 322 8,000 -1,200 Descending Salt Lake Center
14:27 43.4631 -116.3408 76° East 269 310 6,000 -1,740 Descending Salt Lake Center
14:28 43.4794 -116.2336 78° East 272 313 4,500 -840 Descending Salt Lake Center
14:29 43.5100 -116.1497 63° Northeast 234 269 4,400 -480 Descending Salt Lake Center
14:30 43.5419 -116.1653 341° North 152 175 3,600 -780 Descending Salt Lake Center
14:32 43.5500 -116.2167 289° West  Level FlightAware Approximate
14:39 43.5644 -116.2229 289° West  Level Estimated
14:40 43.5644 -116.2229 289° West  Level Estimated